sensor_id;sensor_type;location;lat;lon;timestamp;pressure;altitude;pressure_sealevel;temperature;humidity
60489;BME280;46331;49.252;8.904;2024-01-07T00:00:21;99177.50;;;11.82;57.04
60489;BME280;46331;49.252;8.904;2024-01-07T00:01:02;99177.06;;;12.01;57.42
60489;BME280;46331;49.252;8.904;2024-01-07T00:01:46;99172.91;;;12.26;57.67
60489;BME280;46331;49.252;8.904;2024-01-07T00:02:28;99169.72;;;12.19;57.31
60489;BME280;46331;49.252;8.904;2024-01-07T00:03:08;99185.09;;;12.16;56.57
60489;BME280;46331;49.252;8.904;2024-01-07T00:03:49;99181.41;;;12.12;56.73
60489;BME280;46331;49.252;8.904;2024-01-07T00:04:30;99171.84;;;12.22;57.44
60489;BME280;46331;49.252;8.904;2024-01-07T00:05:11;99174.25;;;12.28;57.05
60489;BME280;46331;49.252;8.904;2024-01-07T00:05:51;99174.00;;;12.35;56.95
60489;BME280;46331;49.252;8.904;2024-01-07T00:06:32;99177.19;;;12.27;57.00
60489;BME280;46331;49.252;8.904;2024-01-07T00:07:12;99182.13;;;12.03;57.06
60489;BME280;46331;49.252;8.904;2024-01-07T00:07:53;99178.25;;;12.31;57.24
60489;BME280;46331;49.252;8.904;2024-01-07T00:08:34;99181.47;;;12.48;57.44
60489;BME280;46331;49.252;8.904;2024-01-07T00:09:16;99188.91;;;12.31;57.10
60489;BME280;46331;49.252;8.904;2024-01-07T00:09:57;99178.78;;;12.28;56.46
60489;BME280;46331;49.252;8.904;2024-01-07T00:10:38;99183.56;;;12.31;56.67
60489;BME280;46331;49.252;8.904;2024-01-07T00:11:18;99173.75;;;12.42;56.59
60489;BME280;46331;49.252;8.904;2024-01-07T00:11:59;99187.03;;;12.37;56.21
60489;BME280;46331;49.252;8.904;2024-01-07T00:12:40;99178.56;;;12.45;56.63
60489;BME280;46331;49.252;8.904;2024-01-07T00:13:20;99178.53;;;12.34;56.55
60489;BME280;46331;49.252;8.904;2024-01-07T00:14:01;99176.91;;;12.28;56.38
60489;BME280;46331;49.252;8.904;2024-01-07T00:14:41;99185.19;;;12.42;57.20
60489;BME280;46331;49.252;8.904;2024-01-07T00:15:22;99186.25;;;12.41;56.86
60489;BME280;46331;49.252;8.904;2024-01-07T00:16:03;99187.06;;;12.47;57.29
60489;BME280;46331;49.252;8.904;2024-01-07T00:16:43;99178.81;;;12.53;56.76
60489;BME280;46331;49.252;8.904;2024-01-07T00:17:24;99184.69;;;12.56;56.84
60489;BME280;46331;49.252;8.904;2024-01-07T00:18:04;99188.16;;;12.61;56.95
60489;BME280;46331;49.252;8.904;2024-01-07T00:18:45;99187.63;;;12.64;56.08
60489;BME280;46331;49.252;8.904;2024-01-07T00:19:25;99181.50;;;12.64;56.08
60489;BME280;46331;49.252;8.904;2024-01-07T00:20:06;99182.59;;;12.68;55.99
60489;BME280;46331;49.252;8.904;2024-01-07T00:20:47;99190.31;;;12.75;55.91
60489;BME280;46331;49.252;8.904;2024-01-07T00:21:28;99186.31;;;12.77;55.83
60489;BME280;46331;49.252;8.904;2024-01-07T00:22:09;99183.91;;;12.70;55.75
60489;BME280;46331;49.252;8.904;2024-01-07T00:22:49;99190.31;;;12.75;56.08
60489;BME280;46331;49.252;8.904;2024-01-07T00:23:30;99186.59;;;12.76;55.60
60489;BME280;46331;49.252;8.904;2024-01-07T00:24:10;99186.59;;;12.76;55.90
60489;BME280;46331;49.252;8.904;2024-01-07T00:24:51;99184.16;;;12.69;55.78
60489;BME280;46331;49.252;8.904;2024-01-07T00:25:31;99190.31;;;12.69;56.18
60489;BME280;46331;49.252;8.904;2024-01-07T00:26:12;99185.50;;;12.77;56.08
60489;BME280;46331;49.252;8.904;2024-01-07T00:26:53;99180.44;;;12.70;55.63
60489;BME280;46331;49.252;8.904;2024-01-07T00:27:33;99190.81;;;12.77;56.16
60489;BME280;46331;49.252;8.904;2024-01-07T00:28:14;99187.06;;;12.52;55.57
60489;BME280;46331;49.252;8.904;2024-01-07T00:28:54;99188.41;;;12.55;55.78
60489;BME280;46331;49.252;8.904;2024-01-07T00:29:35;99181.25;;;12.60;55.36
60489;BME280;46331;49.252;8.904;2024-01-07T00:30:16;99188.97;;;12.67;56.30
60489;BME280;46331;49.252;8.904;2024-01-07T00:30:56;99188.69;;;12.68;55.80
60489;BME280;46331;49.252;8.904;2024-01-07T00:31:36;99186.31;;;12.67;56.01
60489;BME280;46331;49.252;8.904;2024-01-07T00:32:17;99191.88;;;12.70;56.17
60489;BME280;46331;49.252;8.904;2024-01-07T00:32:57;99192.97;;;12.69;55.74
60489;BME280;46331;49.252;8.904;2024-01-07T00:33:38;99188.97;;;12.72;56.39
60489;BME280;46331;49.252;8.904;2024-01-07T00:34:19;99192.72;;;12.71;55.93
60489;BME280;46331;49.252;8.904;2024-01-07T00:34:59;99188.69;;;12.68;55.18
60489;BME280;46331;49.252;8.904;2024-01-07T00:35:40;99192.19;;;12.74;55.81
60489;BME280;46331;49.252;8.904;2024-01-07T00:36:20;99188.69;;;12.74;55.64
60489;BME280;46331;49.252;8.904;2024-01-07T00:37:01;99188.69;;;12.74;55.96
60489;BME280;46331;49.252;8.904;2024-01-07T00:37:41;99186.31;;;12.77;55.69
60489;BME280;46331;49.252;8.904;2024-01-07T00:38:22;99197.75;;;12.78;55.95
60489;BME280;46331;49.252;8.904;2024-01-07T00:39:03;99190.56;;;12.73;55.73
60489;BME280;46331;49.252;8.904;2024-01-07T00:39:43;99189.75;;;12.62;55.26
60489;BME280;46331;49.252;8.904;2024-01-07T00:40:26;99190.53;;;12.58;56.15
60489;BME280;46331;49.252;8.904;2024-01-07T00:41:07;99188.44;;;12.65;55.96
60489;BME280;46331;49.252;8.904;2024-01-07T00:41:48;99193.19;;;12.63;55.53
60489;BME280;46331;49.252;8.904;2024-01-07T00:42:28;99191.06;;;12.60;55.41
60489;BME280;46331;49.252;8.904;2024-01-07T00:43:09;99187.63;;;12.64;55.49
60489;BME280;46331;49.252;8.904;2024-01-07T00:43:49;99183.13;;;12.65;55.57
60489;BME280;46331;49.252;8.904;2024-01-07T00:44:30;99192.41;;;12.62;55.84
60489;BME280;46331;49.252;8.904;2024-01-07T00:45:11;99186.03;;;12.63;55.36
60489;BME280;46331;49.252;8.904;2024-01-07T00:45:51;99188.19;;;12.66;55.90
60489;BME280;46331;49.252;8.904;2024-01-07T00:46:32;99184.69;;;12.66;56.05
60489;BME280;46331;49.252;8.904;2024-01-07T00:47:12;99189.22;;;12.60;55.73
60489;BME280;46331;49.252;8.904;2024-01-07T00:47:53;99184.16;;;12.64;56.15
60489;BME280;46331;49.252;8.904;2024-01-07T00:48:35;99188.97;;;12.62;55.51
60489;BME280;46331;49.252;8.904;2024-01-07T00:49:15;99191.88;;;12.60;55.52
60489;BME280;46331;49.252;8.904;2024-01-07T00:49:57;99180.69;;;12.58;55.39
60489;BME280;46331;49.252;8.904;2024-01-07T00:50:37;99191.06;;;12.60;55.34
60489;BME280;46331;49.252;8.904;2024-01-07T00:51:18;99190.28;;;12.59;55.78
60489;BME280;46331;49.252;8.904;2024-01-07T00:51:59;99192.69;;;12.56;55.60
60489;BME280;46331;49.252;8.904;2024-01-07T00:52:40;99190.81;;;12.56;55.73
60489;BME280;46331;49.252;8.904;2024-01-07T00:53:22;99191.59;;;12.51;55.62
60489;BME280;46331;49.252;8.904;2024-01-07T00:54:03;99192.69;;;12.56;56.09
60489;BME280;46331;49.252;8.904;2024-01-07T00:54:44;99191.34;;;12.53;55.77
60489;BME280;46331;49.252;8.904;2024-01-07T00:55:24;99194.00;;;12.58;55.41
60489;BME280;46331;49.252;8.904;2024-01-07T00:56:05;99194.00;;;12.58;55.70
60489;BME280;46331;49.252;8.904;2024-01-07T00:56:46;99191.59;;;12.51;55.38
60489;BME280;46331;49.252;8.904;2024-01-07T00:57:26;99197.75;;;12.57;56.04
60489;BME280;46331;49.252;8.904;2024-01-07T00:58:07;99193.19;;;12.47;55.36
60489;BME280;46331;49.252;8.904;2024-01-07T00:58:47;99188.94;;;12.51;56.22
60489;BME280;46331;49.252;8.904;2024-01-07T00:59:28;99192.13;;;12.53;55.65
60489;BME280;46331;49.252;8.904;2024-01-07T01:00:10;99194.81;;;12.59;55.57
60489;BME280;46331;49.252;8.904;2024-01-07T01:00:51;99205.41;;;12.48;55.77
60489;BME280;46331;49.252;8.904;2024-01-07T01:01:34;99197.97;;;12.45;55.64
60489;BME280;46331;49.252;8.904;2024-01-07T01:02:14;99201.16;;;12.47;55.99
60489;BME280;46331;49.252;8.904;2024-01-07T01:02:55;99199.53;;;12.36;56.06
60489;BME280;46331;49.252;8.904;2024-01-07T01:03:36;99194.78;;;12.43;56.63
60489;BME280;46331;49.252;8.904;2024-01-07T01:04:16;99203.81;;;12.47;56.04
60489;BME280;46331;49.252;8.904;2024-01-07T01:04:57;99195.84;;;12.47;56.34
60489;BME280;46331;49.252;8.904;2024-01-07T01:05:37;99191.34;;;12.53;55.93
60489;BME280;46331;49.252;8.904;2024-01-07T01:06:18;99188.69;;;12.53;55.58
60489;BME280;46331;49.252;8.904;2024-01-07T01:07:01;99201.44;;;12.56;55.79
60489;BME280;46331;49.252;8.904;2024-01-07T01:07:42;99200.38;;;12.52;55.46
60489;BME280;46331;49.252;8.904;2024-01-07T01:08:22;99196.38;;;12.55;55.46
60489;BME280;46331;49.252;8.904;2024-01-07T01:09:03;99202.75;;;12.53;55.67
60489;BME280;46331;49.252;8.904;2024-01-07T01:09:44;99204.38;;;12.55;55.41
60489;BME280;46331;49.252;8.904;2024-01-07T01:10:26;99203.84;;;12.52;55.67
60489;BME280;46331;49.252;8.904;2024-01-07T01:11:09;99200.66;;;12.66;56.30
60489;BME280;46331;49.252;8.904;2024-01-07T01:11:50;99199.03;;;12.49;55.51
60489;BME280;46331;49.252;8.904;2024-01-07T01:12:31;99208.34;;;12.52;55.72
60489;BME280;46331;49.252;8.904;2024-01-07T01:13:11;99201.44;;;12.56;56.22
60489;BME280;46331;49.252;8.904;2024-01-07T01:13:52;99200.66;;;12.56;55.96
60489;BME280;46331;49.252;8.904;2024-01-07T01:14:33;99202.25;;;12.57;55.83
60489;BME280;46331;49.252;8.904;2024-01-07T01:15:13;99204.09;;;12.56;55.42
60489;BME280;46331;49.252;8.904;2024-01-07T01:15:56;99203.31;;;12.56;55.38
60489;BME280;46331;49.252;8.904;2024-01-07T01:16:37;99199.06;;;12.55;55.88
60489;BME280;46331;49.252;8.904;2024-01-07T01:17:17;99200.09;;;12.48;55.85
60489;BME280;46331;49.252;8.904;2024-01-07T01:17:58;99208.88;;;12.49;56.15
60489;BME280;46331;49.252;8.904;2024-01-07T01:18:38;99204.91;;;12.51;56.13
60489;BME280;46331;49.252;8.904;2024-01-07T01:19:19;99199.31;;;12.53;55.67
60489;BME280;46331;49.252;8.904;2024-01-07T01:19:59;99205.41;;;12.53;56.29
60489;BME280;46331;49.252;8.904;2024-01-07T01:20:40;99199.06;;;12.55;55.90
60489;BME280;46331;49.252;8.904;2024-01-07T01:21:20;99211.56;;;12.59;56.09
60489;BME280;46331;49.252;8.904;2024-01-07T01:22:01;99207.28;;;12.53;56.10
60489;BME280;46331;49.252;8.904;2024-01-07T01:22:41;99208.63;;;12.56;55.83
60489;BME280;46331;49.252;8.904;2024-01-07T01:23:22;99207.56;;;12.57;55.89
60489;BME280;46331;49.252;8.904;2024-01-07T01:24:03;99208.38;;;12.57;55.94
60489;BME280;46331;49.252;8.904;2024-01-07T01:24:43;99205.44;;;12.59;55.95
60489;BME280;46331;49.252;8.904;2024-01-07T01:25:26;99198.22;;;12.39;56.25
60489;BME280;46331;49.252;8.904;2024-01-07T01:26:07;99201.41;;;12.46;55.86
60489;BME280;46331;49.252;8.904;2024-01-07T01:26:48;99207.78;;;12.34;56.14
60489;BME280;46331;49.252;8.904;2024-01-07T01:27:28;99206.44;;;12.32;56.20
60489;BME280;46331;49.252;8.904;2024-01-07T01:28:09;99213.09;;;12.34;56.52
60489;BME280;46331;49.252;8.904;2024-01-07T01:28:50;99207.47;;;12.26;56.91
60489;BME280;46331;49.252;8.904;2024-01-07T01:29:30;99210.69;;;12.28;56.53
60489;BME280;46331;49.252;8.904;2024-01-07T01:30:11;99209.66;;;12.39;56.56
60489;BME280;46331;49.252;8.904;2024-01-07T01:30:52;99216.53;;;12.35;56.32
60489;BME280;46331;49.252;8.904;2024-01-07T01:31:32;99209.13;;;12.37;56.45
60489;BME280;46331;49.252;8.904;2024-01-07T01:32:13;99218.16;;;12.41;56.51
60489;BME280;46331;49.252;8.904;2024-01-07T01:32:54;99209.06;;;12.27;55.79
60489;BME280;46331;49.252;8.904;2024-01-07T01:33:34;99212.56;;;12.32;56.50
60489;BME280;46331;49.252;8.904;2024-01-07T01:34:15;99215.22;;;12.32;56.35
60489;BME280;46331;49.252;8.904;2024-01-07T01:34:55;99217.09;;;12.37;56.56
60489;BME280;46331;49.252;8.904;2024-01-07T01:35:36;99211.78;;;12.37;55.83
60489;BME280;46331;49.252;8.904;2024-01-07T01:36:16;99215.50;;;12.41;56.27
60489;BME280;46331;49.252;8.904;2024-01-07T01:36:57;99215.53;;;12.46;56.39
60489;BME280;46331;49.252;8.904;2024-01-07T01:37:37;99210.47;;;12.45;55.82
60489;BME280;46331;49.252;8.904;2024-01-07T01:38:18;99212.78;;;12.26;56.11
60489;BME280;46331;49.252;8.904;2024-01-07T01:38:58;99210.69;;;12.28;56.44
60489;BME280;46331;49.252;8.904;2024-01-07T01:39:40;99211.47;;;12.23;56.62
60489;BME280;46331;49.252;8.904;2024-01-07T01:40:21;99213.81;;;12.09;57.13
60489;BME280;46331;49.252;8.904;2024-01-07T01:41:01;99210.38;;;12.19;57.33
60489;BME280;46331;49.252;8.904;2024-01-07T01:41:42;99214.13;;;12.23;56.65
60489;BME280;46331;49.252;8.904;2024-01-07T01:42:22;99213.56;;;12.21;56.88
60489;BME280;46331;49.252;8.904;2024-01-07T01:43:03;99213.34;;;12.38;56.80
60489;BME280;46331;49.252;8.904;2024-01-07T01:43:44;99205.38;;;12.38;56.67
60489;BME280;46331;49.252;8.904;2024-01-07T01:44:24;99213.28;;;12.12;56.93
60489;BME280;46331;49.252;8.904;2024-01-07T01:45:07;99207.91;;;12.02;56.62
60489;BME280;46331;49.252;8.904;2024-01-07T01:45:48;99219.19;;;12.30;57.20
60489;BME280;46331;49.252;8.904;2024-01-07T01:46:29;99213.41;;;12.43;57.26
60489;BME280;46331;49.252;8.904;2024-01-07T01:47:10;99207.50;;;12.36;57.08
60489;BME280;46331;49.252;8.904;2024-01-07T01:47:51;99206.16;;;12.23;56.58
60489;BME280;46331;49.252;8.904;2024-01-07T01:48:32;99215.75;;;12.29;56.98
60489;BME280;46331;49.252;8.904;2024-01-07T01:49:12;99215.66;;;12.09;56.90
60489;BME280;46331;49.252;8.904;2024-01-07T01:49:53;99217.00;;;12.11;57.21
60489;BME280;46331;49.252;8.904;2024-01-07T01:50:34;99213.50;;;12.01;57.17
60489;BME280;46331;49.252;8.904;2024-01-07T01:51:14;99211.94;;;12.05;57.31
60489;BME280;46331;49.252;8.904;2024-01-07T01:51:56;99216.22;;;12.11;57.27
60489;BME280;46331;49.252;8.904;2024-01-07T01:52:37;99213.66;;;11.89;57.29
60489;BME280;46331;49.252;8.904;2024-01-07T01:53:17;99218.56;;;12.07;57.59
60489;BME280;46331;49.252;8.904;2024-01-07T01:53:58;99219.66;;;12.16;57.44
60489;BME280;46331;49.252;8.904;2024-01-07T01:54:40;99218.34;;;12.19;57.38
60489;BME280;46331;49.252;8.904;2024-01-07T01:55:21;99219.66;;;12.16;57.20
60489;BME280;46331;49.252;8.904;2024-01-07T01:56:01;99219.34;;;12.03;57.44
60489;BME280;46331;49.252;8.904;2024-01-07T01:56:45;99223.41;;;12.21;57.41
60489;BME280;46331;49.252;8.904;2024-01-07T01:57:32;99220.22;;;12.24;57.20
60489;BME280;46331;49.252;8.904;2024-01-07T01:58:15;99218.69;;;12.38;57.36
60489;BME280;46331;49.252;8.904;2024-01-07T01:58:59;99215.75;;;12.34;57.49
60489;BME280;46331;49.252;8.904;2024-01-07T01:59:40;99220.81;;;12.31;57.04
60489;BME280;46331;49.252;8.904;2024-01-07T02:00:20;99219.78;;;12.47;57.04
60489;BME280;46331;49.252;8.904;2024-01-07T02:01:01;99221.13;;;12.45;56.21
60489;BME280;46331;49.252;8.904;2024-01-07T02:01:43;99221.13;;;12.50;57.01
60489;BME280;46331;49.252;8.904;2024-01-07T02:02:24;99214.47;;;12.58;56.55
60489;BME280;46331;49.252;8.904;2024-01-07T02:03:05;99217.41;;;12.61;56.67
60489;BME280;46331;49.252;8.904;2024-01-07T02:03:48;99224.34;;;12.57;56.36
60489;BME280;46331;49.252;8.904;2024-01-07T02:04:29;99221.63;;;12.47;56.51
60489;BME280;46331;49.252;8.904;2024-01-07T02:05:09;99210.47;;;12.55;56.42
60489;BME280;46331;49.252;8.904;2024-01-07T02:05:50;99225.09;;;12.47;56.96
60489;BME280;46331;49.252;8.904;2024-01-07T02:06:31;99208.59;;;12.45;56.67
60489;BME280;46331;49.252;8.904;2024-01-07T02:07:11;99220.59;;;12.48;56.46
60489;BME280;46331;49.252;8.904;2024-01-07T02:07:54;99213.69;;;12.57;56.61
60489;BME280;46331;49.252;8.904;2024-01-07T02:08:36;99220.81;;;12.36;56.90
60489;BME280;46331;49.252;8.904;2024-01-07T02:09:17;99218.56;;;12.02;57.35
60489;BME280;46331;49.252;8.904;2024-01-07T02:09:58;99216.72;;;12.08;57.51
60489;BME280;46331;49.252;8.904;2024-01-07T02:10:39;99218.09;;;12.21;56.96
60489;BME280;46331;49.252;8.904;2024-01-07T02:11:21;99214.38;;;12.22;56.84
60489;BME280;46331;49.252;8.904;2024-01-07T02:12:05;99225.06;;;12.37;57.17
60489;BME280;46331;49.252;8.904;2024-01-07T02:12:52;99223.19;;;12.32;57.22
60489;BME280;46331;49.252;8.904;2024-01-07T02:13:32;99218.63;;;12.23;56.73
60489;BME280;46331;49.252;8.904;2024-01-07T02:14:13;99219.47;;;12.33;56.49
60489;BME280;46331;49.252;8.904;2024-01-07T02:14:53;99231.06;;;12.12;57.16
60489;BME280;46331;49.252;8.904;2024-01-07T02:15:34;99227.16;;;12.25;57.78
60489;BME280;46331;49.252;8.904;2024-01-07T02:16:15;99230.13;;;12.39;58.37
60489;BME280;46331;49.252;8.904;2024-01-07T02:16:56;99224.78;;;12.33;57.69
60489;BME280;46331;49.252;8.904;2024-01-07T02:17:37;99227.22;;;12.40;57.80
60489;BME280;46331;49.252;8.904;2024-01-07T02:18:17;99224.03;;;12.43;58.23
60489;BME280;46331;49.252;8.904;2024-01-07T02:18:58;99218.69;;;12.38;57.80
60489;BME280;46331;49.252;8.904;2024-01-07T02:19:38;99225.28;;;12.30;58.43
60489;BME280;46331;49.252;8.904;2024-01-07T02:20:19;99225.34;;;12.36;58.78
60489;BME280;46331;49.252;8.904;2024-01-07T02:20:59;99224.00;;;12.33;58.73
60489;BME280;46331;49.252;8.904;2024-01-07T02:21:40;99217.31;;;12.20;59.35
60489;BME280;46331;49.252;8.904;2024-01-07T02:22:21;99223.69;;;12.24;59.08
60489;BME280;46331;49.252;8.904;2024-01-07T02:23:03;99220.50;;;12.22;58.66
60489;BME280;46331;49.252;8.904;2024-01-07T02:23:44;99218.56;;;12.07;59.42
60489;BME280;46331;49.252;8.904;2024-01-07T02:24:25;99222.97;;;11.91;59.77
60489;BME280;46331;49.252;8.904;2024-01-07T02:25:05;99227.31;;;12.03;60.03
60489;BME280;46331;49.252;8.904;2024-01-07T02:25:47;99223.25;;;11.90;59.35
60489;BME280;46331;49.252;8.904;2024-01-07T02:26:27;99220.41;;;12.02;59.76
60489;BME280;46331;49.252;8.904;2024-01-07T02:27:08;99214.19;;;11.86;59.42
60489;BME280;46331;49.252;8.904;2024-01-07T02:27:48;99220.75;;;11.68;59.84
60489;BME280;46331;49.252;8.904;2024-01-07T02:28:30;99224.78;;;11.75;59.93
60489;BME280;46331;49.252;8.904;2024-01-07T02:29:10;99224.78;;;11.75;60.77
60489;BME280;46331;49.252;8.904;2024-01-07T02:29:51;99220.50;;;11.74;60.67
60489;BME280;46331;49.252;8.904;2024-01-07T02:30:34;99217.75;;;11.59;60.46
60489;BME280;46331;49.252;8.904;2024-01-07T02:31:15;99223.97;;;11.37;60.54
60489;BME280;46331;49.252;8.904;2024-01-07T02:31:55;99222.81;;;11.60;60.52
60489;BME280;46331;49.252;8.904;2024-01-07T02:32:36;99224.78;;;11.75;61.25
60489;BME280;46331;49.252;8.904;2024-01-07T02:33:18;99222.13;;;11.80;61.17
60489;BME280;46331;49.252;8.904;2024-01-07T02:33:58;99220.38;;;11.54;61.60
60489;BME280;46331;49.252;8.904;2024-01-07T02:34:39;99223.59;;;11.61;61.55
60489;BME280;46331;49.252;8.904;2024-01-07T02:35:20;99218.63;;;11.70;61.46
60489;BME280;46331;49.252;8.904;2024-01-07T02:36:00;99224.22;;;11.73;61.20
60489;BME280;46331;49.252;8.904;2024-01-07T02:36:41;99225.31;;;11.77;61.12
60489;BME280;46331;49.252;8.904;2024-01-07T02:37:21;99227.44;;;11.75;61.04
60489;BME280;46331;49.252;8.904;2024-01-07T02:38:02;99220.00;;;11.77;61.14
60489;BME280;46331;49.252;8.904;2024-01-07T02:38:42;99230.63;;;11.82;61.01
60489;BME280;46331;49.252;8.904;2024-01-07T02:39:23;99230.38;;;11.84;59.99
60489;BME280;46331;49.252;8.904;2024-01-07T02:40:04;99233.59;;;11.86;60.38
60489;BME280;46331;49.252;8.904;2024-01-07T02:40:45;99224.25;;;11.78;60.47
60489;BME280;46331;49.252;8.904;2024-01-07T02:41:26;99227.69;;;11.79;60.11
60489;BME280;46331;49.252;8.904;2024-01-07T02:42:07;99221.88;;;11.87;60.33
60489;BME280;46331;49.252;8.904;2024-01-07T02:42:47;99226.84;;;11.68;60.46
60489;BME280;46331;49.252;8.904;2024-01-07T02:43:27;99223.44;;;11.78;61.02
60489;BME280;46331;49.252;8.904;2024-01-07T02:44:08;99228.16;;;11.66;60.78
60489;BME280;46331;49.252;8.904;2024-01-07T02:44:49;99226.56;;;11.65;60.57
60489;BME280;46331;49.252;8.904;2024-01-07T02:45:30;99222.28;;;11.58;61.08
60489;BME280;46331;49.252;8.904;2024-01-07T02:46:10;99232.22;;;11.78;61.00
60489;BME280;46331;49.252;8.904;2024-01-07T02:46:52;99234.66;;;11.85;60.87
60489;BME280;46331;49.252;8.904;2024-01-07T02:47:32;99229.53;;;11.73;60.79
60489;BME280;46331;49.252;8.904;2024-01-07T02:48:13;99229.47;;;11.63;60.60
60489;BME280;46331;49.252;8.904;2024-01-07T02:48:53;99227.84;;;11.57;60.88
60489;BME280;46331;49.252;8.904;2024-01-07T02:49:34;99225.88;;;11.42;61.28
60489;BME280;46331;49.252;8.904;2024-01-07T02:50:14;99223.47;;;11.40;60.81
60489;BME280;46331;49.252;8.904;2024-01-07T02:50:56;99228.59;;;11.52;60.85
60489;BME280;46331;49.252;8.904;2024-01-07T02:51:36;99224.97;;;11.63;60.79
60489;BME280;46331;49.252;8.904;2024-01-07T02:52:17;99228.56;;;11.47;60.92
60489;BME280;46331;49.252;8.904;2024-01-07T02:52:57;99226.75;;;11.53;60.88
60489;BME280;46331;49.252;8.904;2024-01-07T02:53:38;99226.50;;;11.59;61.08
60489;BME280;46331;49.252;8.904;2024-01-07T02:54:18;99230.94;;;11.49;60.62
60489;BME280;46331;49.252;8.904;2024-01-07T02:54:59;99219.81;;;11.52;61.28
60489;BME280;46331;49.252;8.904;2024-01-07T02:55:42;99227.00;;;11.51;61.43
60489;BME280;46331;49.252;8.904;2024-01-07T02:56:22;99231.06;;;11.64;61.26
60489;BME280;46331;49.252;8.904;2024-01-07T02:57:03;99227.44;;;11.75;60.80
60489;BME280;46331;49.252;8.904;2024-01-07T02:57:43;99224.00;;;11.80;60.96
60489;BME280;46331;49.252;8.904;2024-01-07T02:58:24;99221.09;;;11.87;60.95
60489;BME280;46331;49.252;8.904;2024-01-07T02:59:04;99228.75;;;11.78;60.30
60489;BME280;46331;49.252;8.904;2024-01-07T02:59:45;99224.78;;;11.80;60.69
60489;BME280;46331;49.252;8.904;2024-01-07T03:00:25;99222.56;;;11.67;60.47
60489;BME280;46331;49.252;8.904;2024-01-07T03:01:09;99223.66;;;11.71;60.27
60489;BME280;46331;49.252;8.904;2024-01-07T03:01:50;99231.19;;;11.42;60.64
60489;BME280;46331;49.252;8.904;2024-01-07T03:02:30;99229.69;;;11.56;60.71
60489;BME280;46331;49.252;8.904;2024-01-07T03:03:11;99231.22;;;11.47;61.09
60489;BME280;46331;49.252;8.904;2024-01-07T03:03:51;99230.78;;;11.60;60.96
60489;BME280;46331;49.252;8.904;2024-01-07T03:04:32;99230.94;;;11.49;60.46
60489;BME280;46331;49.252;8.904;2024-01-07T03:05:13;99230.00;;;11.60;60.84
60489;BME280;46331;49.252;8.904;2024-01-07T03:05:53;99234.53;;;11.65;60.59
60489;BME280;46331;49.252;8.904;2024-01-07T03:06:34;99232.91;;;11.63;60.95
60489;BME280;46331;49.252;8.904;2024-01-07T03:07:14;99235.31;;;11.60;60.94
60489;BME280;46331;49.252;8.904;2024-01-07T03:07:55;99236.00;;;11.50;61.18
60489;BME280;46331;49.252;8.904;2024-01-07T03:08:35;99227.13;;;11.29;61.61
60489;BME280;46331;49.252;8.904;2024-01-07T03:09:16;99231.81;;;11.54;60.89
60489;BME280;46331;49.252;8.904;2024-01-07T03:09:56;99241.28;;;11.45;60.94
60489;BME280;46331;49.252;8.904;2024-01-07T03:10:37;99227.00;;;11.51;61.10
60489;BME280;46331;49.252;8.904;2024-01-07T03:11:17;99232.59;;;11.55;61.20
60489;BME280;46331;49.252;8.904;2024-01-07T03:11:58;99236.06;;;11.55;61.30
60489;BME280;46331;49.252;8.904;2024-01-07T03:12:38;99237.69;;;11.61;61.56
60489;BME280;46331;49.252;8.904;2024-01-07T03:13:19;99235.56;;;11.58;61.11
60489;BME280;46331;49.252;8.904;2024-01-07T03:13:59;99234.28;;;11.66;61.19
60489;BME280;46331;49.252;8.904;2024-01-07T03:14:40;99234.81;;;11.68;60.77
60489;BME280;46331;49.252;8.904;2024-01-07T03:15:21;99234.03;;;11.73;61.19
60489;BME280;46331;49.252;8.904;2024-01-07T03:16:01;99239.34;;;11.73;60.41
60489;BME280;46331;49.252;8.904;2024-01-07T03:16:42;99234.84;;;11.73;60.71
60489;BME280;46331;49.252;8.904;2024-01-07T03:17:22;99236.19;;;11.76;60.72
60489;BME280;46331;49.252;8.904;2024-01-07T03:18:04;99234.88;;;11.78;61.03
60489;BME280;46331;49.252;8.904;2024-01-07T03:18:45;99231.16;;;11.79;60.81
60489;BME280;46331;49.252;8.904;2024-01-07T03:19:25;99237.56;;;11.84;60.43
60489;BME280;46331;49.252;8.904;2024-01-07T03:20:06;99231.19;;;11.85;60.53
60489;BME280;46331;49.252;8.904;2024-01-07T03:20:47;99234.66;;;11.85;60.42
60489;BME280;46331;49.252;8.904;2024-01-07T03:21:27;99236.47;;;11.79;60.18
60489;BME280;46331;49.252;8.904;2024-01-07T03:22:08;99234.09;;;11.83;60.02
60489;BME280;46331;49.252;8.904;2024-01-07T03:22:48;99236.50;;;11.85;60.20
60489;BME280;46331;49.252;8.904;2024-01-07T03:23:29;99229.59;;;11.89;60.37
60489;BME280;46331;49.252;8.904;2024-01-07T03:24:10;99239.22;;;11.95;60.49
60489;BME280;46331;49.252;8.904;2024-01-07T03:24:51;99239.22;;;11.95;60.22
60489;BME280;46331;49.252;8.904;2024-01-07T03:25:31;99231.16;;;11.79;59.36
60489;BME280;46331;49.252;8.904;2024-01-07T03:26:12;99233.63;;;11.91;60.01
60489;BME280;46331;49.252;8.904;2024-01-07T03:26:53;99236.53;;;11.90;59.71
60489;BME280;46331;49.252;8.904;2024-01-07T03:27:33;99240.06;;;11.95;59.76
60489;BME280;46331;49.252;8.904;2024-01-07T03:28:14;99240.06;;;11.95;60.24
60489;BME280;46331;49.252;8.904;2024-01-07T03:28:54;99241.59;;;11.91;59.86
60489;BME280;46331;49.252;8.904;2024-01-07T03:29:35;99234.75;;;11.95;60.10
60489;BME280;46331;49.252;8.904;2024-01-07T03:30:16;99239.22;;;11.95;60.23
60489;BME280;46331;49.252;8.904;2024-01-07T03:30:57;99243.75;;;11.94;60.13
60489;BME280;46331;49.252;8.904;2024-01-07T03:31:37;99242.16;;;11.93;60.26
60489;BME280;46331;49.252;8.904;2024-01-07T03:32:18;99239.72;;;11.92;59.82
60489;BME280;46331;49.252;8.904;2024-01-07T03:32:59;99244.00;;;11.93;59.20
60489;BME280;46331;49.252;8.904;2024-01-07T03:33:41;99244.03;;;11.98;59.85
60489;BME280;46331;49.252;8.904;2024-01-07T03:34:22;99242.38;;;11.92;59.78
60489;BME280;46331;49.252;8.904;2024-01-07T03:35:02;99245.28;;;11.90;59.49
60489;BME280;46331;49.252;8.904;2024-01-07T03:35:43;99239.72;;;11.92;59.62
60489;BME280;46331;49.252;8.904;2024-01-07T03:36:24;99249.34;;;11.98;60.10